sensor_id;sensor_type;location;lat;lon;timestamp;P1;durP1;ratioP1;P2;durP2;ratioP2
21550;SDS011;10936;49.836;7.078;2022-08-19T05:01:48;13.20;;;10.37;;
21550;SDS011;10936;49.836;7.078;2022-08-19T05:04:15;12.10;;;10.17;;
21550;SDS011;10936;49.836;7.078;2022-08-19T05:06:44;11.80;;;9.67;;
21550;SDS011;10936;49.836;7.078;2022-08-19T05:09:10;13.10;;;10.77;;
21550;SDS011;10936;49.836;7.078;2022-08-19T05:11:36;11.93;;;10.47;;
21550;SDS011;10936;49.836;7.078;2022-08-19T05:14:05;12.83;;;10.60;;
21550;SDS011;10936;49.836;7.078;2022-08-19T05:16:32;11.80;;;10.60;;
21550;SDS011;10936;49.836;7.078;2022-08-19T05:18:58;14.60;;;10.30;;
21550;SDS011;10936;49.836;7.078;2022-08-19T05:21:42;11.93;;;10.50;;
21550;SDS011;10936;49.836;7.078;2022-08-19T05:24:27;13.23;;;10.83;;
21550;SDS011;10936;49.836;7.078;2022-08-19T05:26:54;11.07;;;9.87;;
21550;SDS011;10936;49.836;7.078;2022-08-19T05:29:21;12.50;;;10.90;;
21550;SDS011;10936;49.836;7.078;2022-08-19T05:31:49;11.33;;;10.23;;
21550;SDS011;10936;49.836;7.078;2022-08-19T05:34:15;11.20;;;10.10;;
21550;SDS011;10936;49.836;7.078;2022-08-19T05:36:43;13.37;;;10.00;;
21550;SDS011;10936;49.836;7.078;2022-08-19T05:39:11;11.40;;;10.20;;
21550;SDS011;10936;49.836;7.078;2022-08-19T05:41:41;13.63;;;10.70;;
21550;SDS011;10936;49.836;7.078;2022-08-19T05:44:08;11.50;;;9.70;;
21550;SDS011;10936;49.836;7.078;2022-08-19T05:46:35;12.13;;;10.90;;
21550;SDS011;10936;49.836;7.078;2022-08-19T05:49:03;10.83;;;9.80;;
21550;SDS011;10936;49.836;7.078;2022-08-19T05:51:31;11.27;;;9.83;;
21550;SDS011;10936;49.836;7.078;2022-08-19T05:53:58;11.93;;;10.63;;
21550;SDS011;10936;49.836;7.078;2022-08-19T05:56:25;13.10;;;11.70;;
21550;SDS011;10936;49.836;7.078;2022-08-19T05:58:51;12.73;;;11.43;;
21550;SDS011;10936;49.836;7.078;2022-08-19T06:01:19;15.63;;;12.27;;
21550;SDS011;10936;49.836;7.078;2022-08-19T06:03:45;12.80;;;11.43;;
21550;SDS011;10936;49.836;7.078;2022-08-19T06:06:13;13.15;;;11.75;;
21550;SDS011;10936;49.836;7.078;2022-08-19T06:08:39;12.77;;;10.43;;
21550;SDS011;10936;49.836;7.078;2022-08-19T06:11:15;14.53;;;10.90;;
21550;SDS011;10936;49.836;7.078;2022-08-19T06:13:59;12.07;;;10.73;;
21550;SDS011;10936;49.836;7.078;2022-08-19T06:16:27;13.23;;;11.83;;
21550;SDS011;10936;49.836;7.078;2022-08-19T06:18:53;13.87;;;11.80;;
21550;SDS011;10936;49.836;7.078;2022-08-19T06:21:20;14.48;;;12.10;;
21550;SDS011;10936;49.836;7.078;2022-08-19T06:23:48;15.73;;;12.47;;
21550;SDS011;10936;49.836;7.078;2022-08-19T06:26:15;17.03;;;12.50;;
21550;SDS011;10936;49.836;7.078;2022-08-19T06:28:42;12.63;;;11.30;;
21550;SDS011;10936;49.836;7.078;2022-08-19T06:31:12;13.35;;;11.55;;
21550;SDS011;10936;49.836;7.078;2022-08-19T06:33:39;13.13;;;11.73;;
21550;SDS011;10936;49.836;7.078;2022-08-19T06:36:06;15.17;;;12.67;;
21550;SDS011;10936;49.836;7.078;2022-08-19T06:38:32;13.33;;;11.93;;
21550;SDS011;10936;49.836;7.078;2022-08-19T06:41:02;14.40;;;11.67;;
21550;SDS011;10936;49.836;7.078;2022-08-19T06:43:28;13.50;;;11.60;;
21550;SDS011;10936;49.836;7.078;2022-08-19T06:45:54;16.67;;;12.47;;
21550;SDS011;10936;49.836;7.078;2022-08-19T06:48:20;13.57;;;12.00;;
21550;SDS011;10936;49.836;7.078;2022-08-19T06:50:46;14.03;;;11.50;;
21550;SDS011;10936;49.836;7.078;2022-08-19T06:53:13;13.37;;;11.97;;
21550;SDS011;10936;49.836;7.078;2022-08-19T06:55:39;14.97;;;11.30;;
21550;SDS011;10936;49.836;7.078;2022-08-19T06:58:05;13.43;;;11.17;;
21550;SDS011;10936;49.836;7.078;2022-08-19T07:00:31;11.70;;;10.50;;
21550;SDS011;10936;49.836;7.078;2022-08-19T07:02:57;15.87;;;11.07;;
21550;SDS011;10936;49.836;7.078;2022-08-19T07:05:23;11.57;;;10.07;;
21550;SDS011;10936;49.836;7.078;2022-08-19T07:07:49;12.50;;;10.57;;
21550;SDS011;10936;49.836;7.078;2022-08-19T07:10:14;13.10;;;11.03;;
21550;SDS011;10936;49.836;7.078;2022-08-19T07:12:40;12.57;;;11.20;;
21550;SDS011;10936;49.836;7.078;2022-08-19T07:15:06;14.20;;;12.70;;
21550;SDS011;10936;49.836;7.078;2022-08-19T07:17:34;15.67;;;10.73;;
21550;SDS011;10936;49.836;7.078;2022-08-19T07:20:04;13.50;;;10.83;;
21550;SDS011;10936;49.836;7.078;2022-08-19T07:22:33;12.25;;;9.23;;
21550;SDS011;10936;49.836;7.078;2022-08-19T07:24:59;9.90;;;9.00;;
21550;SDS011;10936;49.836;7.078;2022-08-19T07:27:25;9.93;;;8.77;;
21550;SDS011;10936;49.836;7.078;2022-08-19T07:29:51;11.70;;;8.70;;
21550;SDS011;10936;49.836;7.078;2022-08-19T07:32:17;10.03;;;9.00;;
21550;SDS011;10936;49.836;7.078;2022-08-19T07:34:43;10.15;;;9.00;;
21550;SDS011;10936;49.836;7.078;2022-08-19T07:37:10;13.00;;;9.15;;
21550;SDS011;10936;49.836;7.078;2022-08-19T07:39:37;9.90;;;8.80;;
21550;SDS011;10936;49.836;7.078;2022-08-19T07:42:04;10.05;;;9.00;;
21550;SDS011;10936;49.836;7.078;2022-08-19T07:44:33;9.73;;;8.52;;
21550;SDS011;10936;49.836;7.078;2022-08-19T07:46:59;10.45;;;9.02;;
21550;SDS011;10936;49.836;7.078;2022-08-19T07:49:26;9.90;;;8.15;;
21550;SDS011;10936;49.836;7.078;2022-08-19T07:51:57;10.35;;;8.38;;
21550;SDS011;10936;49.836;7.078;2022-08-19T07:54:26;10.68;;;9.05;;
21550;SDS011;10936;49.836;7.078;2022-08-19T07:56:53;10.18;;;8.23;;
21550;SDS011;10936;49.836;7.078;2022-08-19T07:59:19;13.40;;;8.43;;
21550;SDS011;10936;49.836;7.078;2022-08-19T08:01:46;10.32;;;8.38;;
21550;SDS011;10936;49.836;7.078;2022-08-19T08:04:13;8.98;;;8.07;;
21550;SDS011;10936;49.836;7.078;2022-08-19T08:06:58;9.23;;;7.97;;
21550;SDS011;10936;49.836;7.078;2022-08-19T08:09:42;9.68;;;8.18;;
21550;SDS011;10936;49.836;7.078;2022-08-19T08:12:11;10.20;;;8.50;;
21550;SDS011;10936;49.836;7.078;2022-08-19T08:14:51;11.52;;;8.70;;
21550;SDS011;10936;49.836;7.078;2022-08-19T08:17:21;9.73;;;7.95;;
21550;SDS011;10936;49.836;7.078;2022-08-19T08:19:48;9.23;;;8.15;;
21550;SDS011;10936;49.836;7.078;2022-08-19T08:22:16;10.52;;;8.50;;
21550;SDS011;10936;49.836;7.078;2022-08-19T08:25:03;10.40;;;8.45;;
21550;SDS011;10936;49.836;7.078;2022-08-19T08:27:50;10.15;;;7.68;;
21550;SDS011;10936;49.836;7.078;2022-08-19T08:30:19;10.18;;;7.90;;
21550;SDS011;10936;49.836;7.078;2022-08-19T08:32:48;9.80;;;8.35;;
21550;SDS011;10936;49.836;7.078;2022-08-19T08:35:15;8.85;;;7.55;;
21550;SDS011;10936;49.836;7.078;2022-08-19T08:37:42;9.20;;;7.35;;
21550;SDS011;10936;49.836;7.078;2022-08-19T08:45:30;8.30;;;7.40;;
21550;SDS011;10936;49.836;7.078;2022-08-19T08:48:01;9.38;;;7.38;;
21550;SDS011;10936;49.836;7.078;2022-08-19T08:50:34;8.48;;;7.50;;
21550;SDS011;10936;49.836;7.078;2022-08-19T08:53:05;10.57;;;7.80;;
21550;SDS011;10936;49.836;7.078;2022-08-19T08:55:33;10.13;;;7.82;;
21550;SDS011;10936;49.836;7.078;2022-08-19T08:58:01;14.35;;;7.68;;
21550;SDS011;10936;49.836;7.078;2022-08-19T09:00:32;7.95;;;7.25;;
21550;SDS011;10936;49.836;7.078;2022-08-19T09:03:00;7.57;;;6.88;;
21550;SDS011;10936;49.836;7.078;2022-08-19T09:05:33;8.40;;;7.60;;
21550;SDS011;10936;49.836;7.078;2022-08-19T09:08:13;8.70;;;7.30;;
21550;SDS011;10936;49.836;7.078;2022-08-19T09:10:52;8.75;;;7.43;;
21550;SDS011;10936;49.836;7.078;2022-08-19T09:16:18;7.88;;;7.15;;
21550;SDS011;10936;49.836;7.078;2022-08-19T09:18:53;9.05;;;7.70;;
21550;SDS011;10936;49.836;7.078;2022-08-19T09:21:23;10.68;;;8.30;;
21550;SDS011;10936;49.836;7.078;2022-08-19T09:23:50;10.18;;;7.38;;
21550;SDS011;10936;49.836;7.078;2022-08-19T09:26:17;8.77;;;7.85;;
21550;SDS011;10936;49.836;7.078;2022-08-19T09:28:45;7.95;;;7.22;;
21550;SDS011;10936;49.836;7.078;2022-08-19T09:31:13;9.60;;;7.10;;
21550;SDS011;10936;49.836;7.078;2022-08-19T09:33:40;10.63;;;7.95;;
21550;SDS011;10936;49.836;7.078;2022-08-19T09:36:09;7.47;;;6.65;;
21550;SDS011;10936;49.836;7.078;2022-08-19T09:38:37;8.18;;;7.03;;
21550;SDS011;10936;49.836;7.078;2022-08-19T09:41:06;8.43;;;7.18;;
21550;SDS011;10936;49.836;7.078;2022-08-19T09:43:38;8.02;;;7.22;;
21550;SDS011;10936;49.836;7.078;2022-08-19T09:46:05;9.10;;;7.63;;
21550;SDS011;10936;49.836;7.078;2022-08-19T09:48:34;7.97;;;7.28;;
21550;SDS011;10936;49.836;7.078;2022-08-19T09:51:11;8.00;;;7.20;;
21550;SDS011;10936;49.836;7.078;2022-08-19T09:53:40;8.30;;;7.50;;
21550;SDS011;10936;49.836;7.078;2022-08-19T09:56:07;7.35;;;6.55;;
21550;SDS011;10936;49.836;7.078;2022-08-19T09:58:33;8.10;;;7.28;;
21550;SDS011;10936;49.836;7.078;2022-08-19T10:01:00;9.00;;;6.63;;
21550;SDS011;10936;49.836;7.078;2022-08-19T10:03:26;7.90;;;6.65;;
21550;SDS011;10936;49.836;7.078;2022-08-19T10:05:53;9.70;;;7.00;;
21550;SDS011;10936;49.836;7.078;2022-08-19T10:08:24;7.60;;;6.72;;
21550;SDS011;10936;49.836;7.078;2022-08-19T10:10:52;10.32;;;7.07;;
21550;SDS011;10936;49.836;7.078;2022-08-19T10:13:20;8.65;;;7.75;;
21550;SDS011;10936;49.836;7.078;2022-08-19T10:15:51;7.38;;;6.68;;
21550;SDS011;10936;49.836;7.078;2022-08-19T10:18:19;7.13;;;6.43;;
21550;SDS011;10936;49.836;7.078;2022-08-19T10:20:49;7.68;;;6.93;;
21550;SDS011;10936;49.836;7.078;2022-08-19T10:23:16;7.40;;;6.60;;
21550;SDS011;10936;49.836;7.078;2022-08-19T10:25:43;7.07;;;6.47;;
21550;SDS011;10936;49.836;7.078;2022-08-19T10:28:09;7.03;;;6.43;;
21550;SDS011;10936;49.836;7.078;2022-08-19T10:30:37;7.22;;;6.53;;
21550;SDS011;10936;49.836;7.078;2022-08-19T10:33:04;7.43;;;6.63;;
21550;SDS011;10936;49.836;7.078;2022-08-19T10:35:30;8.57;;;6.60;;
21550;SDS011;10936;49.836;7.078;2022-08-19T10:37:56;7.00;;;6.40;;
21550;SDS011;10936;49.836;7.078;2022-08-19T10:40:26;7.18;;;6.47;;
21550;SDS011;10936;49.836;7.078;2022-08-19T10:42:53;8.32;;;6.90;;
21550;SDS011;10936;49.836;7.078;2022-08-19T10:45:20;7.05;;;6.35;;
21550;SDS011;10936;49.836;7.078;2022-08-19T10:47:51;7.07;;;6.47;;
21550;SDS011;10936;49.836;7.078;2022-08-19T10:50:18;7.50;;;6.72;;
21550;SDS011;10936;49.836;7.078;2022-08-19T10:53:03;7.30;;;6.60;;
21550;SDS011;10936;49.836;7.078;2022-08-19T10:55:30;7.20;;;6.60;;
21550;SDS011;10936;49.836;7.078;2022-08-19T10:58:16;7.38;;;6.07;;
21550;SDS011;10936;49.836;7.078;2022-08-19T11:00:53;7.30;;;6.53;;
21550;SDS011;10936;49.836;7.078;2022-08-19T11:03:22;7.95;;;7.10;;
21550;SDS011;10936;49.836;7.078;2022-08-19T11:06:01;7.97;;;6.65;;
21550;SDS011;10936;49.836;7.078;2022-08-19T11:08:29;6.40;;;5.80;;
21550;SDS011;10936;49.836;7.078;2022-08-19T11:10:57;6.40;;;5.80;;
21550;SDS011;10936;49.836;7.078;2022-08-19T11:13:25;5.88;;;5.38;;
21550;SDS011;10936;49.836;7.078;2022-08-19T11:15:57;6.93;;;6.22;;
21550;SDS011;10936;49.836;7.078;2022-08-19T11:18:44;7.35;;;6.55;;
21550;SDS011;10936;49.836;7.078;2022-08-19T11:21:17;8.77;;;6.20;;
21550;SDS011;10936;49.836;7.078;2022-08-19T11:23:46;6.90;;;6.18;;
21550;SDS011;10936;49.836;7.078;2022-08-19T11:26:14;6.88;;;6.10;;
21550;SDS011;10936;49.836;7.078;2022-08-19T11:28:40;7.45;;;6.47;;
21550;SDS011;10936;49.836;7.078;2022-08-19T11:31:13;6.50;;;5.90;;
21550;SDS011;10936;49.836;7.078;2022-08-19T11:33:42;8.90;;;6.15;;
21550;SDS011;10936;49.836;7.078;2022-08-19T11:36:08;6.95;;;6.05;;
21550;SDS011;10936;49.836;7.078;2022-08-19T11:38:35;6.72;;;6.13;;
21550;SDS011;10936;49.836;7.078;2022-08-19T11:41:02;6.47;;;5.82;;
21550;SDS011;10936;49.836;7.078;2022-08-19T11:43:29;8.15;;;6.55;;
21550;SDS011;10936;49.836;7.078;2022-08-19T11:45:56;11.38;;;6.13;;
21550;SDS011;10936;49.836;7.078;2022-08-19T11:48:23;7.32;;;6.25;;
21550;SDS011;10936;49.836;7.078;2022-08-19T11:50:50;7.00;;;6.30;;
21550;SDS011;10936;49.836;7.078;2022-08-19T11:53:17;6.57;;;5.97;;
21550;SDS011;10936;49.836;7.078;2022-08-19T11:55:45;6.82;;;6.15;;
21550;SDS011;10936;49.836;7.078;2022-08-19T11:58:12;6.43;;;5.82;;
21550;SDS011;10936;49.836;7.078;2022-08-19T12:00:39;6.45;;;5.88;;
21550;SDS011;10936;49.836;7.078;2022-08-19T12:03:05;7.60;;;5.97;;
21550;SDS011;10936;49.836;7.078;2022-08-19T12:05:31;6.72;;;6.05;;
21550;SDS011;10936;49.836;7.078;2022-08-19T12:07:57;9.20;;;6.40;;
21550;SDS011;10936;49.836;7.078;2022-08-19T12:10:23;6.68;;;6.07;;
21550;SDS011;10936;49.836;7.078;2022-08-19T12:12:49;8.63;;;6.15;;
21550;SDS011;10936;49.836;7.078;2022-08-19T12:15:14;7.13;;;6.43;;
21550;SDS011;10936;49.836;7.078;2022-08-19T12:17:41;7.60;;;6.32;;
21550;SDS011;10936;49.836;7.078;2022-08-19T12:20:08;8.35;;;6.57;;
21550;SDS011;10936;49.836;7.078;2022-08-19T12:22:36;7.53;;;6.57;;
21550;SDS011;10936;49.836;7.078;2022-08-19T12:25:03;6.78;;;6.18;;
21550;SDS011;10936;49.836;7.078;2022-08-19T12:27:29;7.03;;;6.35;;
21550;SDS011;10936;49.836;7.078;2022-08-19T12:29:56;7.50;;;6.80;;
21550;SDS011;10936;49.836;7.078;2022-08-19T12:32:23;8.25;;;6.22;;
21550;SDS011;10936;49.836;7.078;2022-08-19T12:34:49;7.07;;;6.47;;
21550;SDS011;10936;49.836;7.078;2022-08-19T12:37:15;7.05;;;6.43;;
21550;SDS011;10936;49.836;7.078;2022-08-19T12:39:42;7.07;;;6.25;;
21550;SDS011;10936;49.836;7.078;2022-08-19T12:42:09;7.35;;;6.65;;
21550;SDS011;10936;49.836;7.078;2022-08-19T12:44:37;10.00;;;6.07;;
21550;SDS011;10936;49.836;7.078;2022-08-19T12:47:04;7.10;;;6.10;;
21550;SDS011;10936;49.836;7.078;2022-08-19T12:49:32;7.15;;;6.32;;
21550;SDS011;10936;49.836;7.078;2022-08-19T12:52:02;7.18;;;6.47;;
21550;SDS011;10936;49.836;7.078;2022-08-19T12:54:33;6.80;;;6.20;;
21550;SDS011;10936;49.836;7.078;2022-08-19T12:57:00;7.50;;;6.80;;
21550;SDS011;10936;49.836;7.078;2022-08-19T12:59:29;7.25;;;6.55;;
21550;SDS011;10936;49.836;7.078;2022-08-19T13:01:55;6.85;;;6.15;;
21550;SDS011;10936;49.836;7.078;2022-08-19T13:04:20;7.32;;;6.47;;
21550;SDS011;10936;49.836;7.078;2022-08-19T13:06:46;8.70;;;6.95;;
21550;SDS011;10936;49.836;7.078;2022-08-19T13:09:11;7.70;;;6.97;;
21550;SDS011;10936;49.836;7.078;2022-08-19T13:11:37;7.93;;;6.97;;
21550;SDS011;10936;49.836;7.078;2022-08-19T13:14:03;7.38;;;6.68;;
21550;SDS011;10936;49.836;7.078;2022-08-19T13:16:30;8.32;;;6.68;;
21550;SDS011;10936;49.836;7.078;2022-08-19T13:18:56;8.27;;;7.30;;
21550;SDS011;10936;49.836;7.078;2022-08-19T13:21:24;7.78;;;6.97;;
21550;SDS011;10936;49.836;7.078;2022-08-19T13:23:52;9.20;;;6.97;;
21550;SDS011;10936;49.836;7.078;2022-08-19T13:26:19;9.23;;;6.78;;
21550;SDS011;10936;49.836;7.078;2022-08-19T13:28:45;7.28;;;6.57;;
21550;SDS011;10936;49.836;7.078;2022-08-19T13:31:33;7.65;;;6.82;;
21550;SDS011;10936;49.836;7.078;2022-08-19T13:34:25;8.63;;;6.82;;
21550;SDS011;10936;49.836;7.078;2022-08-19T13:36:53;7.88;;;7.10;;
21550;SDS011;10936;49.836;7.078;2022-08-19T13:39:19;7.40;;;6.50;;
21550;SDS011;10936;49.836;7.078;2022-08-19T13:41:45;8.13;;;6.93;;
21550;SDS011;10936;49.836;7.078;2022-08-19T13:44:13;7.15;;;6.45;;
21550;SDS011;10936;49.836;7.078;2022-08-19T13:46:40;6.95;;;6.25;;
21550;SDS011;10936;49.836;7.078;2022-08-19T13:49:10;8.85;;;6.53;;
21550;SDS011;10936;49.836;7.078;2022-08-19T13:51:37;9.88;;;6.57;;
21550;SDS011;10936;49.836;7.078;2022-08-19T13:54:05;7.28;;;6.57;;
21550;SDS011;10936;49.836;7.078;2022-08-19T13:56:32;7.80;;;6.60;;
21550;SDS011;10936;49.836;7.078;2022-08-19T13:58:57;7.97;;;6.55;;
21550;SDS011;10936;49.836;7.078;2022-08-19T14:01:23;8.30;;;6.50;;
21550;SDS011;10936;49.836;7.078;2022-08-19T14:03:49;7.63;;;6.35;;
21550;SDS011;10936;49.836;7.078;2022-08-19T14:06:15;8.15;;;6.85;;
21550;SDS011;10936;49.836;7.078;2022-08-19T14:08:41;7.85;;;6.43;;
21550;SDS011;10936;49.836;7.078;2022-08-19T14:11:08;10.48;;;7.10;;
21550;SDS011;10936;49.836;7.078;2022-08-19T14:13:34;8.88;;;6.47;;
21550;SDS011;10936;49.836;7.078;2022-08-19T14:16:00;7.30;;;6.55;;
21550;SDS011;10936;49.836;7.078;2022-08-19T14:18:25;6.47;;;5.85;;
21550;SDS011;10936;49.836;7.078;2022-08-19T14:20:52;6.40;;;5.80;;
21550;SDS011;10936;49.836;7.078;2022-08-19T14:23:17;7.50;;;6.10;;
21550;SDS011;10936;49.836;7.078;2022-08-19T14:25:44;8.48;;;6.22;;
21550;SDS011;10936;49.836;7.078;2022-08-19T14:28:11;7.22;;;6.43;;
21550;SDS011;10936;49.836;7.078;2022-08-19T14:30:37;7.03;;;6.32;;
21550;SDS011;10936;49.836;7.078;2022-08-19T14:33:04;7.18;;;6.03;;
21550;SDS011;10936;49.836;7.078;2022-08-19T14:35:31;9.00;;;6.25;;
21550;SDS011;10936;49.836;7.078;2022-08-19T14:38:03;7.35;;;6.50;;
21550;SDS011;10936;49.836;7.078;2022-08-19T14:40:30;7.90;;;6.78;;
21550;SDS011;10936;49.836;7.078;2022-08-19T14:42:57;8.20;;;7.13;;
21550;SDS011;10936;49.836;7.078;2022-08-19T14:45:28;7.72;;;6.40;;
21550;SDS011;10936;49.836;7.078;2022-08-19T14:47:54;6.80;;;6.20;;
21550;SDS011;10936;49.836;7.078;2022-08-19T14:50:20;6.93;;;6.07;;
21550;SDS011;10936;49.836;7.078;2022-08-19T14:52:46;6.30;;;5.70;;
21550;SDS011;10936;49.836;7.078;2022-08-19T14:55:13;8.15;;;6.05;;
21550;SDS011;10936;49.836;7.078;2022-08-19T14:57:41;9.68;;;6.28;;
21550;SDS011;10936;49.836;7.078;2022-08-19T15:00:07;7.53;;;6.40;;
21550;SDS011;10936;49.836;7.078;2022-08-19T15:02:38;9.00;;;6.53;;
21550;SDS011;10936;49.836;7.078;2022-08-19T15:05:04;8.30;;;6.15;;
21550;SDS011;10936;49.836;7.078;2022-08-19T15:07:30;7.47;;;5.85;;
21550;SDS011;10936;49.836;7.078;2022-08-19T15:09:56;11.50;;;6.63;;
21550;SDS011;10936;49.836;7.078;2022-08-19T15:12:23;9.70;;;5.78;;
21550;SDS011;10936;49.836;7.078;2022-08-19T15:14:49;8.43;;;6.70;;
21550;SDS011;10936;49.836;7.078;2022-08-19T15:17:16;9.95;;;6.55;;
21550;SDS011;10936;49.836;7.078;2022-08-19T15:19:42;8.43;;;6.50;;
21550;SDS011;10936;49.836;7.078;2022-08-19T15:22:08;13.88;;;6.95;;
21550;SDS011;10936;49.836;7.078;2022-08-19T15:24:34;10.05;;;6.43;;
21550;SDS011;10936;49.836;7.078;2022-08-19T15:27:00;9.73;;;6.55;;
21550;SDS011;10936;49.836;7.078;2022-08-19T15:29:27;13.70;;;6.40;;
21550;SDS011;10936;49.836;7.078;2022-08-19T15:31:53;9.93;;;6.28;;
21550;SDS011;10936;49.836;7.078;2022-08-19T15:34:23;9.57;;;6.90;;
21550;SDS011;10936;49.836;7.078;2022-08-19T15:36:49;10.93;;;6.78;;
21550;SDS011;10936;49.836;7.078;2022-08-19T15:39:16;10.82;;;6.28;;
21550;SDS011;10936;49.836;7.078;2022-08-19T15:41:43;12.60;;;6.82;;
21550;SDS011;10936;49.836;7.078;2022-08-19T15:44:11;13.82;;;6.60;;
21550;SDS011;10936;49.836;7.078;2022-08-19T15:46:40;8.00;;;6.53;;
21550;SDS011;10936;49.836;7.078;2022-08-19T15:49:08;7.68;;;5.95;;
21550;SDS011;10936;49.836;7.078;2022-08-19T15:51:36;9.23;;;6.47;;
21550;SDS011;10936;49.836;7.078;2022-08-19T15:54:08;8.57;;;6.28;;
21550;SDS011;10936;49.836;7.078;2022-08-19T15:56:35;11.25;;;6.32;;
21550;SDS011;10936;49.836;7.078;2022-08-19T15:59:20;11.05;;;6.45;;
21550;SDS011;10936;49.836;7.078;2022-08-19T16:02:05;9.27;;;6.03;;
21550;SDS011;10936;49.836;7.078;2022-08-19T16:04:50;7.47;;;6.38;;
21550;SDS011;10936;49.836;7.078;2022-08-19T16:07:35;10.82;;;5.72;;
21550;SDS011;10936;49.836;7.078;2022-08-19T16:10:01;8.85;;;6.47;;
21550;SDS011;10936;49.836;7.078;2022-08-19T16:12:26;7.95;;;5.82;;
21550;SDS011;10936;49.836;7.078;2022-08-19T16:14:54;7.38;;;6.20;;
21550;SDS011;10936;49.836;7.078;2022-08-19T16:17:20;8.13;;;5.75;;
21550;SDS011;10936;49.836;7.078;2022-08-19T16:19:46;8.40;;;6.47;;
21550;SDS011;10936;49.836;7.078;2022-08-19T16:22:12;7.45;;;6.13;;
21550;SDS011;10936;49.836;7.078;2022-08-19T16:24:38;9.40;;;6.95;;
21550;SDS011;10936;49.836;7.078;2022-08-19T16:27:04;12.32;;;6.63;;
21550;SDS011;10936;49.836;7.078;2022-08-19T16:29:30;11.55;;;6.30;;
21550;SDS011;10936;49.836;7.078;2022-08-19T16:31:58;10.98;;;5.97;;
21550;SDS011;10936;49.836;7.078;2022-08-19T16:34:24;8.02;;;5.65;;
21550;SDS011;10936;49.836;7.078;2022-08-19T16:36:50;8.68;;;6.20;;
21550;SDS011;10936;49.836;7.078;2022-08-19T16:39:16;8.27;;;6.25;;
21550;SDS011;10936;49.836;7.078;2022-08-19T16:41:42;10.40;;;5.82;;
21550;SDS011;10936;49.836;7.078;2022-08-19T16:44:11;6.38;;;5.40;;
21550;SDS011;10936;49.836;7.078;2022-08-19T16:46:38;8.00;;;5.88;;
21550;SDS011;10936;49.836;7.078;2022-08-19T16:49:05;10.85;;;5.65;;
21550;SDS011;10936;49.836;7.078;2022-08-19T16:51:31;15.90;;;5.63;;
21550;SDS011;10936;49.836;7.078;2022-08-19T16:53:58;7.32;;;5.20;;
21550;SDS011;10936;49.836;7.078;2022-08-19T16:56:24;9.30;;;4.78;;
21550;SDS011;10936;49.836;7.078;2022-08-19T16:58:51;6.85;;;5.38;;
21550;SDS011;10936;49.836;7.078;2022-08-19T17:01:18;6.43;;;4.97;;
21550;SDS011;10936;49.836;7.078;2022-08-19T17:03:44;9.18;;;5.15;;
21550;SDS011;10936;49.836;7.078;2022-08-19T17:06:27;9.23;;;5.80;;
21550;SDS011;10936;49.836;7.078;2022-08-19T17:08:56;5.57;;;4.50;;
21550;SDS011;10936;49.836;7.078;2022-08-19T17:11:23;6.90;;;5.22;;
21550;SDS011;10936;49.836;7.078;2022-08-19T17:13:51;8.45;;;4.93;;
21550;SDS011;10936;49.836;7.078;2022-08-19T17:16:22;6.82;;;5.30;;
21550;SDS011;10936;49.836;7.078;2022-08-19T17:18:49;5.90;;;4.90;;
21550;SDS011;10936;49.836;7.078;2022-08-19T17:21:20;7.63;;;4.82;;
21550;SDS011;10936;49.836;7.078;2022-08-19T17:23:48;7.57;;;4.78;;
21550;SDS011;10936;49.836;7.078;2022-08-19T17:26:14;4.82;;;3.80;;
21550;SDS011;10936;49.836;7.078;2022-08-19T17:28:41;5.70;;;4.03;;
21550;SDS011;10936;49.836;7.078;2022-08-19T17:31:08;6.22;;;4.55;;
21550;SDS011;10936;49.836;7.078;2022-08-19T17:33:33;4.25;;;3.55;;
21550;SDS011;10936;49.836;7.078;2022-08-19T17:35:59;7.07;;;4.80;;
21550;SDS011;10936;49.836;7.078;2022-08-19T17:38:28;5.05;;;4.10;;
21550;SDS011;10936;49.836;7.078;2022-08-19T17:40:54;5.18;;;3.85;;
21550;SDS011;10936;49.836;7.078;2022-08-19T17:43:28;4.43;;;3.67;;
21550;SDS011;10936;49.836;7.078;2022-08-19T17:45:53;6.30;;;3.85;;
21550;SDS011;10936;49.836;7.078;2022-08-19T17:48:19;5.13;;;3.58;;
21550;SDS011;10936;49.836;7.078;2022-08-19T17:50:45;7.38;;;4.07;;
21550;SDS011;10936;49.836;7.078;2022-08-19T17:53:11;5.25;;;3.90;;
21550;SDS011;10936;49.836;7.078;2022-08-19T17:55:37;7.70;;;4.00;;
21550;SDS011;10936;49.836;7.078;2022-08-19T17:58:03;4.90;;;3.83;;
21550;SDS011;10936;49.836;7.078;2022-08-19T18:00:29;5.13;;;3.55;;
21550;SDS011;10936;49.836;7.078;2022-08-19T18:02:57;3.60;;;3.17;;
21550;SDS011;10936;49.836;7.078;2022-08-19T18:05:29;6.38;;;3.53;;
21550;SDS011;10936;49.836;7.078;2022-08-19T18:07:57;5.13;;;3.13;;
21550;SDS011;10936;49.836;7.078;2022-08-19T18:10:24;4.72;;;3.30;;
21550;SDS011;10936;49.836;7.078;2022-08-19T18:12:52;4.80;;;3.10;;
21550;SDS011;10936;49.836;7.078;2022-08-19T18:15:18;5.13;;;3.13;;
21550;SDS011;10936;49.836;7.078;2022-08-19T18:17:45;4.95;;;3.05;;
21550;SDS011;10936;49.836;7.078;2022-08-19T18:20:12;3.72;;;3.25;;
21550;SDS011;10936;49.836;7.078;2022-08-19T18:22:39;4.75;;;3.30;;
21550;SDS011;10936;49.836;7.078;2022-08-19T18:25:08;5.85;;;3.10;;
21550;SDS011;10936;49.836;7.078;2022-08-19T18:27:49;4.32;;;3.28;;
21550;SDS011;10936;49.836;7.078;2022-08-19T18:30:16;4.97;;;3.45;;
21550;SDS011;10936;49.836;7.078;2022-08-19T18:32:42;3.38;;;2.95;;
21550;SDS011;10936;49.836;7.078;2022-08-19T18:35:12;4.35;;;3.05;;
21550;SDS011;10936;49.836;7.078;2022-08-19T18:37:41;3.25;;;2.75;;
21550;SDS011;10936;49.836;7.078;2022-08-19T18:40:09;4.38;;;3.03;;
21550;SDS011;10936;49.836;7.078;2022-08-19T18:42:55;5.75;;;2.85;;
21550;SDS011;10936;49.836;7.078;2022-08-19T18:45:48;4.47;;;2.67;;
21550;SDS011;10936;49.836;7.078;2022-08-19T18:48:32;3.22;;;2.63;;
21550;SDS011;10936;49.836;7.078;2022-08-19T18:51:17;3.78;;;2.80;;
21550;SDS011;10936;49.836;7.078;2022-08-19T18:53:44;4.28;;;3.22;;
21550;SDS011;10936;49.836;7.078;2022-08-19T18:56:12;4.03;;;2.95;;
21550;SDS011;10936;49.836;7.078;2022-08-19T18:58:40;4.57;;;3.03;;
21550;SDS011;10936;49.836;7.078;2022-08-19T19:01:16;4.93;;;3.50;;
21550;SDS011;10936;49.836;7.078;2022-08-19T19:03:46;3.13;;;2.72;;
21550;SDS011;10936;49.836;7.078;2022-08-19T19:06:15;3.30;;;3.00;;
21550;SDS011;10936;49.836;7.078;2022-08-19T19:08:44;4.05;;;3.13;;
21550;SDS011;10936;49.836;7.078;2022-08-19T19:11:10;3.25;;;2.95;;
21550;SDS011;10936;49.836;7.078;2022-08-19T19:13:36;3.83;;;3.33;;
21550;SDS011;10936;49.836;7.078;2022-08-19T19:16:10;4.05;;;2.92;;
21550;SDS011;10936;49.836;7.078;2022-08-19T19:18:36;3.55;;;3.03;;
21550;SDS011;10936;49.836;7.078;2022-08-19T19:21:02;3.72;;;2.88;;
21550;SDS011;10936;49.836;7.078;2022-08-19T19:23:29;4.90;;;2.72;;
21550;SDS011;10936;49.836;7.078;2022-08-19T19:25:54;4.22;;;3.10;;
21550;SDS011;10936;49.836;7.078;2022-08-19T19:28:20;3.35;;;3.03;;
21550;SDS011;10936;49.836;7.078;2022-08-19T19:30:49;4.95;;;3.08;;
21550;SDS011;10936;49.836;7.078;2022-08-19T19:33:17;4.25;;;3.28;;
21550;SDS011;10936;49.836;7.078;2022-08-19T19:35:43;3.35;;;2.83;;
21550;SDS011;10936;49.836;7.078;2022-08-19T19:38:10;4.40;;;3.08;;
21550;SDS011;10936;49.836;7.078;2022-08-19T19:40:36;3.20;;;2.58;;
21550;SDS011;10936;49.836;7.078;2022-08-19T19:43:01;4.03;;;2.80;;
21550;SDS011;10936;49.836;7.078;2022-08-19T19:45:30;6.22;;;2.92;;
21550;SDS011;10936;49.836;7.078;2022-08-19T19:47:56;3.00;;;2.70;;
21550;SDS011;10936;49.836;7.078;2022-08-19T19:50:23;4.82;;;3.00;;
21550;SDS011;10936;49.836;7.078;2022-08-19T19:52:49;5.15;;;2.65;;
21550;SDS011;10936;49.836;7.078;2022-08-19T19:55:16;2.92;;;2.60;;
21550;SDS011;10936;49.836;7.078;2022-08-19T19:57:45;3.58;;;2.80;;
21550;SDS011;10936;49.836;7.078;2022-08-19T20:00:13;3.97;;;2.88;;